Nearby METAR Reports

 

KBMG - Bloomington, Indiana, USA
Distance from station: SSE 11mi, 18km
Updated: Fri, 23-Feb-2018 10:53am EST
Overcast
Overcast
 Wind from SW
Wind: SW 9 mph , 15 km/h
Temperature: 55°F , 13°C
Dew Point: 54°F , 12°C
Humidity: 94%
Barometer: 30.23 inHg , 1023.7 hPa
Clouds: Overcast
Visibility: 10 miles , 16 km
Cloud details: Few Clouds 700 ft
Mostly cloudy 1700 ft
Overcast 2300 ft
2018/02/23 15:53 KBMG 231553Z 23008KT 10SM FEW007 BKN017 OVC023 13/12 A3023 RMK AO2 RAE06 SLP238 P0000 T01280117
KHUF - Terre Haute, Indiana, USA
Distance from station: WNW 34mi, 54km
Updated: Fri, 23-Feb-2018 10:53am EST
Overcast
Overcast
 Wind from WSW
Wind: WSW 8 mph , 13 km/h
Temperature: 52°F , 11°C
Dew Point: 48°F , 9°C
Humidity: 88%
Barometer: 30.24 inHg , 1024 hPa
Clouds: Overcast
Visibility: 10 miles , 16 km
Cloud details: Overcast 1100 ft
2018/02/23 15:53 KHUF 231553Z 24007KT 10SM OVC011 11/09 A3024 RMK AO2 SLP241 T01060094
 
KIND - Indianapolis, Indiana, USA
Distance from station: NE 36mi, 58km
Updated: Fri, 23-Feb-2018 10:54am EST
Overcast
Overcast
 Wind from WSW
Wind: WSW 14 mph , 22 km/h
Temperature: 54°F , 12°C
Dew Point: 54°F , 12°C
Humidity: 100%
Barometer: 30.20 inHg , 1022.7 hPa
Clouds: Overcast
Visibility: 10 miles , 16 km
Cloud details: Mostly cloudy 800 ft
Mostly cloudy 1900 ft
Overcast 2800 ft
2018/02/23 15:54 KIND 231554Z 25012KT 10SM BKN008 BKN019 OVC028 12/12 A3020 RMK AO2 RAE06 SLP229 P0000 T01220117
KBAK - Columbus/Balkala, Indiana, USA
Distance from station: E 43mi, 69km
Updated: Fri, 23-Feb-2018 10:49am EST
Light rain, Mist, Overcast
Light rain, Mist, Overcast
 Wind from SW
Wind: SW 9 mph , 15 km/h
Temperature: 57°F , 14°C
Barometer: 30.22 inHg , 1023.4 hPa
Summary: Light rain, Mist
Clouds: Overcast
Visibility: 2 1/2 miles , 4 km
Cloud details: Mostly cloudy 400 ft
Overcast 1400 ft
2018/02/23 15:49 KBAK 231549Z 23008KT 2 1/2SM -RA BR BKN004 OVC014 14/ A3022
 
KEYE - Indianapolis, Indiana, USA
Distance from station: NNE 43mi, 69km
Updated: Fri, 23-Feb-2018 11:31am EST
Overcast
Overcast
 Wind from SW
Wind: SW 9 mph , 15 km/h
Temperature: 54°F , 12°C
Dew Point: 50°F , 10°C
Humidity: 88%
Barometer: 30.21 inHg , 1023 hPa
Clouds: Overcast
Visibility: 10 miles , 16 km
Cloud details: Overcast 1000 ft
2018/02/23 16:31 KEYE 231631Z AUTO 23008KT 10SM OVC010 12/10 A3021 RMK AO2 T01220100
KDCY - Daviess County, Indiana, USA
Distance from station: SSW 47mi, 76km
Updated: Fri, 23-Feb-2018 11:35am EST
Overcast
Overcast
 Wind from W
Wind: W 10 mph , 17 km/h
Temperature: 52°F , 11°C
Dew Point: 50°F , 10°C
Humidity: 94%
Barometer: 30.28 inHg , 1025.4 hPa
Clouds: Overcast
Visibility: 10 miles , 16 km
Cloud details: Mostly cloudy 800 ft
Overcast 2500 ft
2018/02/23 16:35 KDCY 231635Z AUTO 26009KT 10SM BKN008 OVC025 11/10 A3028 RMK AO2 T01140104
 
KGEZ - Shelbyville, Indiana, USA
Distance from station: ENE 52mi, 83km
Updated: Fri, 23-Feb-2018 11:35am EST
Overcast
Overcast
 Wind from WSW
Wind: WSW 15 mph , 24 km/h
Temperature: 57°F , 14°C
Dew Point: 54°F , 12°C
Humidity: 88%
Barometer: 30.22 inHg , 1023.4 hPa
Clouds: Overcast
Visibility: 10 miles , 16 km
Cloud details: Partly cloudy 800 ft
Partly cloudy 1400 ft
Overcast 3000 ft
2018/02/23 16:35 KGEZ 231635Z AUTO 25013KT 10SM SCT008 SCT014 OVC030 14/12 A3022 RMK AO2 RAE05B16E25 P0001 T01390117
KRSV - Robinson Muni, Illinois, USA
Distance from station: WSW 55mi, 88km
Updated: Fri, 23-Feb-2018 11:35am EST
Overcast
Overcast
 Wind from WSW
Wind: WSW 9 mph , 15 km/h
Temperature: 50°F , 10°C
Wind Chill: 46°F , 8°C
Dew Point: 48°F , 9°C
Humidity: 94%
Barometer: 30.28 inHg , 1025.4 hPa
Clouds: Overcast
Visibility: 10 miles , 16 km
Cloud details: Overcast 1300 ft
2018/02/23 16:35 KRSV 231635Z AUTO 24008KT 10SM OVC013 10/09 A3028 RMK AO2 T00980086
 
KTYQ - Indianapolis Exc, Indiana, USA
Distance from station: NNE 56mi, 90km
Updated: Fri, 23-Feb-2018 11:35am EST
Overcast
Overcast
 Wind from WSW
Wind: WSW 14 mph , 22 km/h, Gust: 17 mph , 28 km/h
Temperature: 50°F , 10°C
Wind Chill: 45°F , 7°C
Dew Point: 50°F , 10°C
Humidity: 100%
Barometer: 30.21 inHg , 1023 hPa
Clouds: Overcast
Visibility: 10 miles , 16 km
Cloud details: Overcast 700 ft
2018/02/23 16:35 KTYQ 231635Z AUTO 24012G15KT 10SM OVC007 10/10 A3021 RMK AO2 T01010096
KMQJ - Indianapolis Reg, Indiana, USA
Distance from station: NE 57mi, 92km
Updated: Fri, 23-Feb-2018 11:35am EST
Overcast
Overcast
 Wind from WSW
Wind: WSW 13 mph , 20 km/h
Temperature: 54°F , 12°C
Dew Point: 54°F , 12°C
Humidity: 100%
Barometer: 30.22 inHg , 1023.4 hPa
Clouds: Overcast
Visibility: 10 miles , 16 km
Cloud details: Partly cloudy 1100 ft
Mostly cloudy 2900 ft
Overcast 3500 ft
2018/02/23 16:35 KMQJ 231635Z AUTO 25011KT 10SM SCT011 BKN029 OVC035 12/12 A3022 RMK AO1
 
KPRG - Paris, Illinois, USA
Distance from station: WNW 59mi, 94km
Updated: Fri, 23-Feb-2018 11:15am EST
Overcast
Overcast
 Wind from WSW
Wind: WSW 13 mph , 20 km/h
Temperature: 48°F , 9°C
Wind Chill: 43°F , 6°C
Dew Point: 46°F , 8°C
Humidity: 94%
Barometer: 30.25 inHg , 1024.4 hPa
Clouds: Overcast
Visibility: 10 miles , 16 km
Cloud details: Overcast 1100 ft
2018/02/23 16:15 KPRG 231615Z AUTO 25011KT 10SM OVC011 09/08 A3025 RMK AO2 T00890075
KLWV - Lawrenceville, Illinois, USA
Distance from station: SW 61mi, 98km
Updated: Fri, 23-Feb-2018 11:25am EST
Overcast
Overcast
 Wind from WSW
Wind: WSW 9 mph , 15 km/h
Temperature: 52°F , 11°C
Dew Point: 48°F , 9°C
Humidity: 88%
Barometer: 30.28 inHg , 1025.4 hPa
Clouds: Overcast
Visibility: 10 miles , 16 km
Cloud details: Partly cloudy 1300 ft
Overcast 3100 ft
2018/02/23 16:25 KLWV 231625Z AUTO 25008KT 10SM SCT013 OVC031 11/09 A3028 RMK AO2 T01110094
 
KAJG - Mount Carmel, Illinois, USA
Distance from station: SW 73mi, 117km
Updated: Fri, 23-Feb-2018 11:35am EST
Overcast
Overcast
 Wind from W
Wind: W 12 mph , 19 km/h
Temperature: 52°F , 11°C
Dew Point: 48°F , 9°C
Humidity: 88%
Barometer: 30.28 inHg , 1025.4 hPa
Clouds: Overcast
Visibility: 10 miles , 16 km
Cloud details: Partly cloudy 1100 ft
Overcast 2900 ft
2018/02/23 16:35 KAJG 231635Z AUTO 26010KT 10SM SCT011 OVC029 11/09 A3028 RMK AO2 T01050088
KHNB - Huntingburg, Indiana, USA
Distance from station: S 74mi, 119km
Updated: Fri, 23-Feb-2018 11:24am EST
Light rain, Overcast
Light rain, Overcast
 Wind from W
Wind: W 10 mph , 17 km/h
Temperature: 54°F , 12°C
Dew Point: 54°F , 12°C
Humidity: 100%
Barometer: 30.29 inHg , 1025.7 hPa
Summary: Light rain
Clouds: Overcast
Visibility: 9 miles , 14 km
Cloud details: Overcast 400 ft
2018/02/23 16:24 KHNB 231624Z AUTO 28009KT 9SM -RA OVC004 12/12 A3029 RMK AO2 CIG 003V009 P0001
 
KLAF - Lafayette, Indiana, USA
Distance from station: N 78mi, 126km
Updated: Fri, 23-Feb-2018 10:54am EST
Overcast
Overcast
 Wind from WSW
Wind: WSW 9 mph , 15 km/h
Temperature: 48°F , 9°C
Wind Chill: 44°F , 7°C
Dew Point: 46°F , 8°C
Humidity: 94%
Barometer: 30.18 inHg , 1022 hPa
Clouds: Overcast
Visibility: 10 miles , 16 km
Cloud details: Overcast 1000 ft
2018/02/23 15:54 KLAF 231554Z 25008KT 10SM OVC010 09/08 A3018 RMK AO2 SLP222 T00890083
KDNV - Danville, Illinois, USA
Distance from station: NW 79mi, 126km
Updated: Fri, 23-Feb-2018 11:35am EST
Overcast
Overcast
 Wind from W
Wind: W 16 mph , 26 km/h, Gust: 21 mph , 33 km/h
Temperature: 46°F , 8°C
Wind Chill: 39°F , 4°C
Dew Point: 45°F , 7°C
Humidity: 93%
Barometer: 30.20 inHg , 1022.7 hPa
Clouds: Overcast
Visibility: 10 miles , 16 km
Cloud details: Overcast 900 ft
2018/02/23 16:35 KDNV 231635Z AUTO 27014G18KT 10SM OVC009 08/07 A3020 RMK AO2 T00840068
 
KAID - Anderson Municip, Indiana, USA
Distance from station: NE 81mi, 130km
Updated: Fri, 23-Feb-2018 10:50am EST

 Wind from W
Wind: W 12 mph , 19 km/h, Gust: 17 mph , 28 km/h
2018/02/23 15:50 KAID 231550Z 26010G15KT 1 1/2-DZ OVC004 12/11 A3020
KMTO - Mattoon/Charlest, Illinois, USA
Distance from station: W 85mi, 136km
Updated: Fri, 23-Feb-2018 11:28am EST
Overcast
Overcast
 Wind from W
Wind: W 9 mph , 15 km/h
Temperature: 46°F , 8°C
Wind Chill: 41°F , 5°C
Dew Point: 45°F , 7°C
Humidity: 93%
Barometer: 30.24 inHg , 1024 hPa
Clouds: Overcast
Visibility: 1 10 miles , 16 km
Cloud details: Overcast 900 ft
2018/02/23 16:28 KMTO 231628Z AUTO 26008KT 10SM OVC009 08/07 A3024 RMK AO2 CIG 009V013 T00830067
 
KOLY - Olney-Noble, Illinois, USA
Distance from station: WSW 89mi, 144km
Updated: Fri, 23-Feb-2018 11:35am EST
Overcast
Overcast
 Wind from WSW
Wind: WSW 7 mph , 11 km/h
Temperature: 50°F , 10°C
Wind Chill: 47°F , 8°C
Dew Point: 48°F , 9°C
Humidity: 94%
Barometer: 30.29 inHg , 1025.7 hPa
Clouds: Overcast
Visibility: 10 miles , 16 km
Cloud details: Overcast 1100 ft
2018/02/23 16:35 KOLY 231635Z AUTO 25006KT 10SM OVC011 10/09 A3029 RMK AO2 T00990087
KOKK - Kokomo, Indiana, USA
Distance from station: NNE 92mi, 148km
Updated: Fri, 23-Feb-2018 10:56am EST
Overcast
Overcast
 Wind from WSW
Wind: WSW 16 mph , 26 km/h
Temperature: 50°F , 10°C
Wind Chill: 44°F , 7°C
Dew Point: 48°F , 9°C
Humidity: 94%
Barometer: 30.16 inHg , 1021.3 hPa
Clouds: Overcast
Visibility: 10 miles , 16 km
Cloud details: Overcast 900 ft
2018/02/23 15:56 KOKK 231556Z AUTO 24014KT 10SM OVC009 10/09 A3016 RMK AO2 SLP221 T01000089